createdAt,value
2022-12-31T00:03:02.442Z,1.30
2022-12-31T00:13:03.893Z,1.35
2022-12-31T00:23:05.237Z,1.60
2022-12-31T00:33:06.587Z,1.17
2022-12-31T00:43:08.067Z,1.05
2022-12-31T00:53:09.437Z,0.97
2022-12-31T01:03:10.957Z,1.10
2022-12-31T01:13:12.721Z,1.88
2022-12-31T01:23:14.060Z,0.90
2022-12-31T01:33:15.427Z,1.00
2022-12-31T01:43:20.101Z,1.00
2022-12-31T01:53:21.993Z,1.10
2022-12-31T02:03:24.845Z,1.60
2022-12-31T02:13:26.381Z,1.20
2022-12-31T02:23:42.096Z,0.60
2022-12-31T02:33:56.591Z,0.40
2022-12-31T02:43:57.957Z,0.60
2022-12-31T02:54:15.755Z,0.80
2022-12-31T03:04:33.921Z,1.20
2022-12-31T03:14:35.323Z,0.40
2022-12-31T03:24:55.053Z,0.80
2022-12-31T03:34:56.389Z,0.50
2022-12-31T03:44:57.969Z,0.73
2022-12-31T03:54:59.334Z,0.80
2022-12-31T04:05:00.943Z,1.83
2022-12-31T04:15:02.307Z,0.87
2022-12-31T04:25:05.121Z,0.57
2022-12-31T04:35:07.179Z,0.80
2022-12-31T04:45:09.039Z,0.73
2022-12-31T04:55:11.475Z,0.73
2022-12-31T05:05:12.864Z,0.70
2022-12-31T05:15:14.247Z,0.50
2022-12-31T05:25:15.742Z,0.50
2022-12-31T05:35:17.312Z,0.57
2022-12-31T05:45:20.414Z,0.60
2022-12-31T05:55:24.384Z,1.00
2022-12-31T06:05:26.462Z,0.67
2022-12-31T06:15:28.065Z,0.70
2022-12-31T06:25:29.466Z,0.60
2022-12-31T06:35:30.831Z,0.53
2022-12-31T06:45:32.198Z,0.70
2022-12-31T06:55:34.897Z,0.88
2022-12-31T07:05:46.523Z,0.90
2022-12-31T07:16:07.683Z,0.57
2022-12-31T07:26:36.545Z,0.90
2022-12-31T07:36:46.901Z,0.60
2022-12-31T07:46:57.290Z,0.80
2022-12-31T07:56:58.708Z,1.05
2022-12-31T08:07:13.657Z,1.27
2022-12-31T08:17:17.185Z,0.93
2022-12-31T08:27:46.951Z,0.87
2022-12-31T08:37:59.182Z,0.80
2022-12-31T08:48:09.645Z,1.00
2022-12-31T08:58:32.444Z,0.70
2022-12-31T09:09:06.115Z,0.85
2022-12-31T09:19:10.125Z,0.80
2022-12-31T09:29:42.176Z,0.93
2022-12-31T09:39:48.331Z,1.17
2022-12-31T09:50:18.561Z,1.05
2022-12-31T10:00:34.296Z,0.60
2022-12-31T10:11:26.443Z,1.00
2022-12-31T10:21:46.128Z,0.98
2022-12-31T10:32:31.537Z,1.10
2022-12-31T10:42:44.380Z,0.97
2022-12-31T10:53:04.063Z,1.02
2022-12-31T11:03:30.093Z,1.13
2022-12-31T11:13:43.510Z,1.10
2022-12-31T11:24:17.455Z,1.70
2022-12-31T11:34:46.577Z,1.15
2022-12-31T11:45:15.507Z,0.87
2022-12-31T11:55:52.430Z,0.90
2022-12-31T12:05:56.841Z,1.30
2022-12-31T12:16:00.439Z,1.20
2022-12-31T12:26:02.318Z,1.00
2022-12-31T12:36:12.894Z,1.10
2022-12-31T12:46:23.388Z,1.40
2022-12-31T12:56:57.149Z,1.37
2022-12-31T13:07:32.890Z,1.85
2022-12-31T13:17:56.155Z,1.38
2022-12-31T13:28:09.836Z,1.40
2022-12-31T13:38:23.551Z,1.20
2022-12-31T13:48:34.643Z,1.60
2022-12-31T13:58:42.170Z,1.40
2022-12-31T14:08:45.103Z,1.50
2022-12-31T14:18:54.015Z,1.40
2022-12-31T14:29:10.544Z,1.50
2022-12-31T14:39:36.459Z,1.20
2022-12-31T14:50:04.591Z,1.88
2022-12-31T15:00:21.318Z,1.90
2022-12-31T15:10:50.396Z,2.00
2022-12-31T15:21:13.304Z,1.90
2022-12-31T15:31:19.413Z,2.03
2022-12-31T15:42:03.105Z,2.30
2022-12-31T15:52:14.220Z,3.10
2022-12-31T16:02:23.197Z,2.00
2022-12-31T16:12:33.125Z,1.97
2022-12-31T16:22:38.237Z,2.50
2022-12-31T16:32:39.921Z,2.13
2022-12-31T16:42:44.427Z,2.33
2022-12-31T16:52:50.437Z,1.90
2022-12-31T17:03:27.244Z,2.10
2022-12-31T17:13:32.153Z,1.95
2022-12-31T17:23:36.280Z,2.77
2022-12-31T17:33:37.633Z,2.10
2022-12-31T17:43:39.567Z,1.67
2022-12-31T17:53:42.197Z,1.90
2022-12-31T18:03:44.310Z,1.90
2022-12-31T18:13:45.881Z,2.17
2022-12-31T18:23:48.686Z,2.22
2022-12-31T18:33:51.686Z,2.10
2022-12-31T18:43:53.162Z,2.70
2022-12-31T18:53:54.509Z,2.47
2022-12-31T19:03:57.932Z,2.43
2022-12-31T19:13:59.310Z,2.23
2022-12-31T19:24:00.735Z,3.50
2022-12-31T19:34:02.102Z,2.70
2022-12-31T19:44:03.491Z,2.80
2022-12-31T19:54:05.267Z,2.60
2022-12-31T20:04:06.794Z,2.70
2022-12-31T20:14:08.143Z,2.80
2022-12-31T20:24:09.612Z,2.10
2022-12-31T20:34:12.173Z,3.28
2022-12-31T20:44:13.601Z,2.40
2022-12-31T20:54:15.010Z,1.97
2022-12-31T21:04:16.823Z,2.67
2022-12-31T21:14:18.312Z,1.87
2022-12-31T21:24:23.798Z,2.17
2022-12-31T21:34:25.528Z,2.78
2022-12-31T21:44:28.271Z,3.30
2022-12-31T21:54:48.037Z,3.03
2022-12-31T22:05:12.470Z,2.25
2022-12-31T22:15:15.708Z,3.27
2022-12-31T22:25:17.424Z,2.90
2022-12-31T22:35:18.813Z,3.08
2022-12-31T22:45:20.234Z,2.65
2022-12-31T22:55:21.598Z,2.70
2022-12-31T23:05:22.998Z,10.50
2022-12-31T23:15:43.019Z,38.92
2022-12-31T23:25:51.984Z,51.10
2022-12-31T23:36:06.852Z,28.63
2022-12-31T23:46:08.244Z,29.67
2022-12-31T23:56:22.830Z,14.03
